Time;durP1;ratioP1;P1;durP2;ratioP2;P2;SDS_P1;SDS_P2;PMS_P1;PMS_P2;Temp;Humidity;BMP_temperature;BMP_pressure;BME280_temperature;BME280_humidity;BME280_pressure;Samples;Min_cycle;Max_cycle;Signal;HPM_P1;HPM_P2
2022/10/17 00:00:15;;;;;;;9.13;4.20;;;15.40;99.90;;;;;;6246296;23;20226;-41
2022/10/17 00:02:41;;;;;;;7.60;4.07;;;15.40;99.90;;;;;;6246412;23;20162;-40
2022/10/17 00:05:07;;;;;;;4.63;3.80;;;15.40;99.90;;;;;;6246181;23;20170;-44
2022/10/17 00:07:32;;;;;;;4.47;4.00;;;15.40;99.90;;;;;;6245736;22;20171;-42
2022/10/17 00:09:58;;;;;;;7.73;3.77;;;15.50;99.90;;;;;;6245894;23;20174;-40
2022/10/17 00:12:24;;;;;;;9.10;4.30;;;15.40;99.90;;;;;;6219189;23;20568;-41
2022/10/17 00:14:49;;;;;;;5.53;3.67;;;15.50;99.90;;;;;;6246716;23;20156;-40
2022/10/17 00:17:15;;;;;;;8.73;3.67;;;15.40;99.90;;;;;;6219301;23;20266;-45
2022/10/17 00:19:41;;;;;;;10.43;4.00;;;15.50;99.90;;;;;;6246008;23;20159;-46
2022/10/17 00:22:06;;;;;;;4.70;3.53;;;15.50;99.90;;;;;;6245951;23;20164;-44
2022/10/17 00:24:32;;;;;;;7.73;3.33;;;15.50;99.90;;;;;;6246069;23;20183;-43
2022/10/17 00:26:58;;;;;;;4.57;3.70;;;15.40;99.90;;;;;;6246014;22;20174;-44
2022/10/17 00:29:23;;;;;;;7.80;4.37;;;15.50;99.90;;;;;;6245864;23;20224;-44
2022/10/17 00:31:49;;;;;;;12.87;4.37;;;15.40;99.90;;;;;;6194186;23;20246;-45
2022/10/17 00:34:14;;;;;;;4.73;3.77;;;15.30;99.90;;;;;;6219232;23;20163;-43
2022/10/17 00:36:40;;;;;;;5.10;3.80;;;15.40;99.90;;;;;;6245992;22;20674;-45
2022/10/17 00:39:06;;;;;;;5.63;3.30;;;15.40;99.90;;;;;;6246440;23;20597;-43
2022/10/17 00:41:33;;;;;;;5.57;4.10;;;15.30;99.90;;;;;;6248617;23;20153;-45
2022/10/17 00:44:04;;;;;;;6.43;4.20;;;15.30;99.90;;;;;;6250181;23;20180;-47
2022/10/17 00:46:32;;;;;;;7.00;3.93;;;15.30;99.90;;;;;;6250294;22;20136;-45
2022/10/17 00:49:05;;;;;;;7.20;4.40;;;15.30;99.90;;;;;;6249587;23;20152;-43
2022/10/17 00:51:37;;;;;;;8.97;4.30;;;15.20;99.90;;;;;;6220981;23;20148;-44
2022/10/17 00:54:04;;;;;;;5.43;4.00;;;15.30;99.90;;;;;;6247727;23;20160;-42
2022/10/17 00:56:31;;;;;;;7.13;4.10;;;15.30;99.90;;;;;;6247867;22;20165;-46
2022/10/17 00:58:57;;;;;;;6.53;4.03;;;15.30;99.90;;;;;;6247795;23;20155;-45
2022/10/17 01:01:22;;;;;;;8.00;4.00;;;15.30;99.90;;;;;;6247916;23;20236;-44
2022/10/17 01:03:48;;;;;;;8.40;4.23;;;15.30;99.90;;;;;;6247967;23;20250;-44
2022/10/17 01:06:14;;;;;;;4.33;3.90;;;15.30;99.90;;;;;;6247698;23;20167;-46
2022/10/17 01:08:39;;;;;;;6.70;3.90;;;15.30;99.90;;;;;;6247620;22;20187;-45
2022/10/17 01:11:28;;;;;;;7.70;4.07;;;15.30;99.90;;;;;;6220712;23;20239;-43
2022/10/17 01:14:05;;;;;;;6.90;4.40;;;15.20;99.90;;;;;;6248218;23;20570;-43
2022/10/17 01:16:53;;;;;;;4.70;4.13;;;15.30;99.90;;;;;;6247979;22;20630;-46
2022/10/17 01:19:34;;;;;;;11.60;4.00;;;15.20;99.90;;;;;;6247568;23;20210;-44
2022/10/17 01:22:23;;;;;;;13.07;5.13;;;15.20;99.90;;;;;;6247522;23;20146;-46
2022/10/17 01:25:00;;;;;;;9.57;4.20;;;15.10;99.90;;;;;;6247329;23;20216;-45
2022/10/17 01:27:45;;;;;;;5.77;4.37;;;15.10;99.90;;;;;;6247874;22;20199;-44
2022/10/17 01:30:43;;;;;;;5.93;4.40;;;15.10;99.90;;;;;;6247699;23;20449;-46
2022/10/17 01:33:45;;;;;;;7.77;4.43;;;15.10;99.90;;;;;;6247757;23;20136;-46
2022/10/17 01:36:19;;;;;;;8.70;4.30;;;15.20;99.90;;;;;;6247019;23;20174;-42
2022/10/17 01:38:49;;;;;;;6.60;4.87;;;15.20;99.90;;;;;;6248524;22;20194;-43
2022/10/17 01:41:26;;;;;;;10.13;5.17;;;15.20;99.90;;;;;;6247245;23;20163;-43
2022/10/17 01:44:02;;;;;;;5.50;4.60;;;15.30;99.90;;;;;;6247448;23;20177;-46
2022/10/17 01:46:38;;;;;;;12.90;4.20;;;15.20;99.90;;;;;;6247526;22;20232;-43
2022/10/17 01:49:07;;;;;;;4.87;3.73;;;15.30;99.90;;;;;;6247292;23;20149;-45
2022/10/17 01:51:45;;;;;;;5.50;3.97;;;15.30;99.90;;;;;;6247049;23;20152;-44
2022/10/17 01:54:13;;;;;;;5.57;4.33;;;15.40;99.90;;;;;;6247243;23;20179;-43
2022/10/17 01:56:41;;;;;;;5.73;4.17;;;15.50;99.90;;;;;;6247064;22;20537;-44
2022/10/17 01:59:18;;;;;;;6.60;4.07;;;15.60;99.90;;;;;;6247159;23;20259;-42
2022/10/17 02:01:50;;;;;;;7.87;4.50;;;15.60;99.90;;;;;;6247248;23;20150;-44
2022/10/17 02:04:15;;;;;;;6.33;4.30;;;15.50;99.90;;;;;;6247230;23;20182;-46
2022/10/17 02:06:41;;;;;;;6.70;4.37;;;15.40;99.90;;;;;;6247333;22;20588;-45
2022/10/17 02:09:19;;;;;;;6.03;4.10;;;15.40;99.90;;;;;;6247106;23;20151;-45
2022/10/17 02:12:12;;;;;;;5.57;3.90;;;15.40;99.90;;;;;;6246855;23;20609;-45
2022/10/17 02:15:04;;;;;;;5.87;3.80;;;15.20;99.90;;;;;;6230607;23;20163;-44
2022/10/17 02:17:52;;;;;;;6.53;4.07;;;15.20;99.90;;;;;;6230562;22;20684;-43
2022/10/17 02:20:32;;;;;;;5.40;3.53;;;15.20;99.90;;;;;;6246998;23;20582;-46
2022/10/17 02:23:10;;;;;;;7.40;3.97;;;15.10;99.90;;;;;;6219976;23;20159;-46
2022/10/17 02:25:57;;;;;;;6.00;4.50;;;15.10;99.90;;;;;;6247029;23;20190;-46
2022/10/17 02:28:30;;;;;;;5.53;3.73;;;15.10;99.90;;;;;;6247332;22;20305;-47
2022/10/17 02:31:12;;;;;;;7.77;4.23;;;15.10;99.90;;;;;;6246976;23;20166;-44
2022/10/17 02:33:48;;;;;;;6.50;4.10;;;15.10;99.90;;;;;;6219963;23;20229;-45
2022/10/17 02:36:18;;;;;;;7.83;4.70;;;15.10;99.90;;;;;;6219822;23;20173;-45
2022/10/17 02:38:45;;;;;;;5.50;4.23;;;15.10;99.90;;;;;;6246656;22;20179;-45
2022/10/17 02:41:14;;;;;;;10.53;4.63;;;15.10;99.90;;;;;;6246844;23;20166;-45
2022/10/17 02:43:44;;;;;;;6.50;4.43;;;15.10;99.90;;;;;;6246974;23;20179;-44
2022/10/17 02:46:19;;;;;;;5.43;4.20;;;15.00;99.90;;;;;;6219907;23;20160;-45
2022/10/17 02:48:50;;;;;;;5.63;4.10;;;15.10;99.90;;;;;;6220080;23;20258;-46
2022/10/17 02:51:31;;;;;;;7.13;4.30;;;15.10;99.90;;;;;;6247256;23;20217;-45
2022/10/17 02:54:03;;;;;;;6.13;4.50;;;15.10;99.90;;;;;;6247277;23;20154;-44
2022/10/17 02:56:33;;;;;;;12.07;4.53;;;15.00;99.90;;;;;;6246668;22;20144;-46
2022/10/17 02:59:02;;;;;;;5.57;4.10;;;15.00;99.90;;;;;;6247335;23;20224;-45
2022/10/17 03:01:29;;;;;;;6.90;4.20;;;15.00;99.90;;;;;;6246410;23;20217;-45
2022/10/17 03:04:06;;;;;;;8.87;4.30;;;15.00;99.90;;;;;;6246886;23;20648;-45
2022/10/17 03:06:32;;;;;;;5.33;3.93;;;15.00;99.90;;;;;;6246832;22;20156;-45
2022/10/17 03:08:57;;;;;;;6.80;3.77;;;15.00;99.90;;;;;;6246809;23;20183;-41
2022/10/17 03:11:23;;;;;;;6.10;4.17;;;15.00;99.90;;;;;;6246449;23;20223;-44
2022/10/17 03:13:48;;;;;;;4.83;3.70;;;15.00;99.90;;;;;;6247737;23;20179;-45
2022/10/17 03:16:14;;;;;;;7.63;4.40;;;15.00;99.90;;;;;;6257332;23;20170;-44
2022/10/17 03:18:39;;;;;;;5.90;3.87;;;15.00;99.90;;;;;;6255525;22;20513;-44
2022/10/17 03:21:05;;;;;;;5.90;4.70;;;15.00;99.90;;;;;;6246734;23;20170;-43
2022/10/17 03:23:30;;;;;;;8.37;4.23;;;15.00;99.90;;;;;;6246993;23;20511;-45
2022/10/17 03:25:56;;;;;;;5.47;4.20;;;15.00;99.90;;;;;;6219440;23;20158;-44
2022/10/17 03:28:22;;;;;;;9.40;3.90;;;15.00;99.90;;;;;;6246302;22;20177;-45
2022/10/17 03:30:47;;;;;;;7.73;3.80;;;15.00;99.90;;;;;;6246555;23;20154;-45
2022/10/17 03:33:13;;;;;;;4.37;3.97;;;15.00;99.90;;;;;;6246770;23;20159;-45
2022/10/17 03:35:39;;;;;;;7.03;4.40;;;15.00;99.90;;;;;;6246025;23;20172;-44
2022/10/17 03:38:05;;;;;;;4.97;4.30;;;14.90;99.90;;;;;;6219772;23;20203;-45
2022/10/17 03:40:30;;;;;;;4.43;3.87;;;14.90;99.90;;;;;;6219807;23;20229;-44
2022/10/17 03:42:56;;;;;;;6.47;4.47;;;14.90;99.90;;;;;;6219330;23;20471;-45
2022/10/17 03:45:21;;;;;;;5.10;4.57;;;14.80;99.90;;;;;;6246703;23;20155;-43
2022/10/17 03:47:47;;;;;;;5.37;4.20;;;14.70;99.90;;;;;;6246159;22;20556;-44
2022/10/17 03:50:13;;;;;;;8.33;4.67;;;14.70;99.90;;;;;;6246169;23;20177;-44
2022/10/17 03:52:38;;;;;;;8.03;4.60;;;14.60;99.90;;;;;;6246244;23;20148;-46
2022/10/17 03:55:04;;;;;;;5.10;4.33;;;14.60;99.90;;;;;;6246257;23;20162;-45
2022/10/17 03:57:30;;;;;;;7.30;4.30;;;14.60;99.90;;;;;;6246090;22;20194;-43
2022/10/17 03:59:56;;;;;;;10.70;4.70;;;14.60;99.90;;;;;;6246141;23;20602;-43
2022/10/17 04:02:21;;;;;;;6.33;4.90;;;14.50;99.90;;;;;;6245903;23;20600;-43
2022/10/17 04:04:47;;;;;;;6.73;4.40;;;14.50;99.90;;;;;;6219080;23;20262;-44
2022/10/17 04:07:12;;;;;;;5.40;4.00;;;14.40;99.90;;;;;;6246442;22;20176;-43
2022/10/17 04:09:38;;;;;;;4.47;3.70;;;14.40;99.90;;;;;;6246204;23;20155;-43
2022/10/17 04:12:04;;;;;;;5.03;4.20;;;14.30;99.90;;;;;;6246391;23;20160;-45
2022/10/17 04:14:29;;;;;;;5.03;4.20;;;14.30;99.90;;;;;;6246666;23;20153;-45
2022/10/17 04:16:55;;;;;;;6.83;4.13;;;14.20;99.90;;;;;;6247444;22;20184;-45
2022/10/17 04:19:21;;;;;;;9.93;4.33;;;14.30;99.90;;;;;;6221227;23;20178;-43
2022/10/17 04:21:47;;;;;;;5.30;4.03;;;14.40;99.90;;;;;;6248118;23;20152;-43
2022/10/17 04:24:13;;;;;;;5.47;3.87;;;14.60;99.90;;;;;;6247920;23;20182;-44
2022/10/17 04:26:38;;;;;;;11.07;4.37;;;14.80;99.90;;;;;;6220970;22;20235;-43
2022/10/17 04:29:04;;;;;;;5.07;4.43;;;14.90;99.90;;;;;;6247957;23;20237;-40
2022/10/17 04:31:30;;;;;;;12.10;5.13;;;14.90;99.90;;;;;;6221197;23;20676;-41
2022/10/17 04:33:55;;;;;;;8.70;4.73;;;14.90;99.90;;;;;;6247909;23;20156;-40
2022/10/17 04:36:22;;;;;;;6.13;5.20;;;14.90;99.90;;;;;;6247789;23;20175;-39
2022/10/17 04:38:47;;;;;;;10.33;5.27;;;14.90;99.90;;;;;;6220865;23;20183;-40
2022/10/17 04:41:16;;;;;;;6.87;5.67;;;15.00;99.90;;;;;;6247878;23;20590;-43
2022/10/17 04:43:42;;;;;;;8.67;6.00;;;14.90;99.90;;;;;;6220646;23;20187;-41
2022/10/17 04:46:11;;;;;;;8.43;6.47;;;14.90;99.90;;;;;;6247660;23;20232;-41
2022/10/17 04:48:37;;;;;;;9.03;5.50;;;14.80;99.90;;;;;;6247522;22;20175;-40
2022/10/17 04:51:06;;;;;;;8.20;5.30;;;14.80;99.90;;;;;;6248016;23;20187;-42
2022/10/17 04:53:34;;;;;;;7.93;4.90;;;14.80;99.90;;;;;;6247964;23;20157;-42
2022/10/17 04:56:00;;;;;;;11.97;5.00;;;14.80;99.90;;;;;;6247685;23;20156;-40
2022/10/17 04:58:29;;;;;;;7.73;5.30;;;14.90;99.90;;;;;;6247860;22;20204;-42
2022/10/17 05:00:54;;;;;;;11.23;5.00;;;14.90;99.90;;;;;;6247488;23;20155;-40
2022/10/17 05:03:20;;;;;;;8.70;5.33;;;15.00;99.90;;;;;;6247355;23;20229;-39
2022/10/17 05:05:45;;;;;;;8.97;5.73;;;15.10;99.90;;;;;;6220738;23;20206;-41
2022/10/17 05:08:11;;;;;;;7.70;5.53;;;15.10;99.90;;;;;;6247731;22;20180;-41
2022/10/17 05:10:42;;;;;;;11.63;5.63;;;15.10;99.90;;;;;;6247633;23;20163;-43
2022/10/17 05:13:08;;;;;;;7.00;5.30;;;15.10;99.90;;;;;;6247525;23;20228;-40
2022/10/17 05:15:34;;;;;;;7.87;5.87;;;15.10;99.90;;;;;;6247487;23;20160;-40
2022/10/17 05:18:00;;;;;;;6.70;5.33;;;15.10;99.90;;;;;;6247695;22;20552;-42
2022/10/17 05:20:26;;;;;;;8.27;6.03;;;15.10;99.90;;;;;;6247792;23;20157;-43
2022/10/17 05:22:52;;;;;;;7.67;5.63;;;15.10;99.90;;;;;;6247249;23;20164;-42
2022/10/17 05:25:18;;;;;;;9.33;6.10;;;15.00;99.90;;;;;;6247393;23;20148;-41
2022/10/17 05:27:44;;;;;;;6.63;5.67;;;15.00;99.90;;;;;;6220222;23;20183;-43
2022/10/17 05:30:10;;;;;;;10.13;6.07;;;15.10;99.90;;;;;;6247663;23;20158;-44
2022/10/17 05:32:36;;;;;;;9.27;5.70;;;15.00;99.90;;;;;;6247504;23;20154;-41
2022/10/17 05:35:03;;;;;;;6.40;5.60;;;15.10;99.90;;;;;;6247828;23;20167;-41
2022/10/17 05:37:29;;;;;;;8.60;5.23;;;15.10;99.90;;;;;;6247726;22;20179;-41
2022/10/17 05:39:55;;;;;;;8.83;5.50;;;15.00;99.90;;;;;;6247451;23;20187;-41
2022/10/17 05:42:21;;;;;;;8.33;4.90;;;14.90;99.90;;;;;;6247087;23;20159;-40
2022/10/17 05:44:46;;;;;;;7.60;4.93;;;14.80;99.90;;;;;;6247387;23;20179;-41
2022/10/17 05:47:12;;;;;;;6.77;4.90;;;14.80;99.90;;;;;;6247450;22;20203;-40
2022/10/17 05:49:37;;;;;;;9.97;5.00;;;14.70;99.90;;;;;;6247064;23;20160;-41
2022/10/17 05:52:03;;;;;;;7.07;4.90;;;14.70;99.90;;;;;;6247444;23;20148;-41
2022/10/17 05:54:29;;;;;;;7.10;5.73;;;14.70;99.90;;;;;;6247258;23;20152;-40
2022/10/17 05:56:55;;;;;;;9.70;5.03;;;14.70;99.90;;;;;;6247530;22;20482;-40
2022/10/17 05:59:21;;;;;;;8.17;5.37;;;14.70;99.90;;;;;;6247607;23;20166;-39
2022/10/17 06:01:47;;;;;;;10.00;5.97;;;14.60;99.90;;;;;;6247572;23;20225;-40
2022/10/17 06:04:12;;;;;;;7.43;5.53;;;14.60;99.90;;;;;;6220034;23;20262;-39
2022/10/17 06:06:39;;;;;;;9.03;5.37;;;14.60;99.90;;;;;;6247225;22;20594;-42
2022/10/17 06:09:06;;;;;;;14.57;6.00;;;14.60;99.90;;;;;;6247297;23;20215;-42
2022/10/17 06:11:32;;;;;;;8.40;5.73;;;14.60;99.90;;;;;;6247188;23;20158;-40
2022/10/17 06:13:58;;;;;;;6.77;5.30;;;14.60;99.90;;;;;;6247119;23;20165;-41
2022/10/17 06:16:23;;;;;;;8.57;5.47;;;14.60;99.90;;;;;;6247228;23;20159;-42
2022/10/17 06:18:49;;;;;;;9.97;6.13;;;14.60;99.90;;;;;;6246678;22;20181;-40
2022/10/17 06:21:23;;;;;;;9.07;6.07;;;14.60;99.90;;;;;;6247170;23;20218;-39
2022/10/17 06:23:49;;;;;;;11.27;6.17;;;14.60;99.90;;;;;;6247052;23;20167;-40
2022/10/17 06:26:15;;;;;;;8.00;5.47;;;14.60;99.90;;;;;;6246853;23;20152;-38
2022/10/17 06:28:41;;;;;;;10.17;5.30;;;14.70;99.90;;;;;;6247018;22;20229;-40
2022/10/17 06:31:09;;;;;;;6.13;5.30;;;14.70;99.90;;;;;;6246472;23;20260;-40
2022/10/17 06:33:35;;;;;;;9.30;5.63;;;14.80;99.90;;;;;;6246706;23;20155;-39
2022/10/17 06:36:02;;;;;;;12.27;6.40;;;14.80;99.90;;;;;;6246578;23;20176;-43
2022/10/17 06:38:27;;;;;;;9.80;6.20;;;14.80;99.90;;;;;;6246140;22;20690;-40
2022/10/17 06:40:53;;;;;;;7.77;5.47;;;14.90;99.90;;;;;;6247195;23;20205;-38
2022/10/17 06:43:19;;;;;;;8.90;5.80;;;15.00;99.90;;;;;;6246430;23;20511;-40
2022/10/17 06:45:46;;;;;;;7.43;5.53;;;15.10;99.90;;;;;;6219539;23;20550;-39
2022/10/17 06:48:12;;;;;;;14.17;5.47;;;15.20;99.90;;;;;;6219512;23;20277;-41
2022/10/17 06:50:37;;;;;;;8.10;5.50;;;15.40;99.90;;;;;;6246501;23;20151;-38
2022/10/17 06:53:03;;;;;;;10.43;5.90;;;15.50;99.90;;;;;;6247114;23;20202;-40
2022/10/17 06:55:30;;;;;;;8.33;6.30;;;15.60;99.90;;;;;;6219679;23;20165;-40
2022/10/17 06:57:56;;;;;;;8.97;6.17;;;15.70;99.90;;;;;;6246244;22;20268;-38
2022/10/17 07:00:22;;;;;;;10.67;7.17;;;15.80;99.90;;;;;;6246566;23;20155;-38
2022/10/17 07:02:48;;;;;;;8.80;6.43;;;15.80;99.90;;;;;;6194911;23;20164;-41
2022/10/17 07:05:13;;;;;;;12.40;7.20;;;15.80;99.90;;;;;;6219536;23;20625;-39
2022/10/17 07:07:39;;;;;;;8.80;7.00;;;15.90;99.90;;;;;;6246441;22;20176;-41
2022/10/17 07:10:07;;;;;;;12.60;7.17;;;15.90;99.90;;;;;;6246521;23;20161;-39
2022/10/17 07:12:34;;;;;;;11.90;7.30;;;15.90;99.90;;;;;;6246357;23;20147;-40
2022/10/17 07:15:00;;;;;;;11.80;7.00;;;15.90;99.90;;;;;;6246385;23;20230;-42
2022/10/17 07:17:25;;;;;;;9.80;6.77;;;15.90;99.90;;;;;;6246376;22;20178;-41
2022/10/17 07:19:51;;;;;;;10.93;7.10;;;15.90;99.90;;;;;;6246446;23;20157;-39
2022/10/17 07:22:16;;;;;;;18.07;6.70;;;15.90;99.90;;;;;;6246930;23;20163;-39
2022/10/17 07:24:42;;;;;;;11.47;6.37;;;15.90;99.90;;;;;;6246152;23;20190;-43
2022/10/17 07:27:07;;;;;;;11.70;6.50;;;15.90;99.90;;;;;;6246448;22;20175;-41
2022/10/17 07:29:33;;;;;;;11.73;6.63;;;15.90;99.90;;;;;;6246959;23;20230;-41
2022/10/17 07:31:59;;;;;;;14.60;6.73;;;16.00;99.90;;;;;;6247015;23;20179;-40
2022/10/17 07:34:26;;;;;;;14.17;6.77;;;16.00;99.90;;;;;;6248711;23;20241;-40
2022/10/17 07:36:52;;;;;;;15.03;6.87;;;16.10;99.90;;;;;;6250262;22;20195;-41
2022/10/17 07:39:18;;;;;;;10.47;6.60;;;16.20;99.90;;;;;;6252957;23;20162;-39
2022/10/17 07:41:43;;;;;;;11.23;6.17;;;16.20;99.90;;;;;;6251143;23;20325;-41
2022/10/17 07:44:09;;;;;;;12.37;6.63;;;16.30;99.90;;;;;;6224459;23;20188;-42
2022/10/17 07:46:34;;;;;;;12.67;5.87;;;16.40;99.90;;;;;;6249233;22;20162;-39
2022/10/17 07:49:00;;;;;;;10.63;6.33;;;16.40;99.90;;;;;;6253301;23;20166;-42
2022/10/17 07:51:26;;;;;;;14.17;6.37;;;16.50;99.90;;;;;;6250263;23;20156;-41
2022/10/17 07:53:52;;;;;;;11.83;6.50;;;16.60;99.90;;;;;;6250665;23;20151;-39
2022/10/17 07:56:18;;;;;;;9.17;6.10;;;16.70;99.90;;;;;;6254877;23;20160;-41
2022/10/17 07:58:43;;;;;;;11.73;5.50;;;16.80;99.90;;;;;;6254073;22;20191;-40
2022/10/17 08:01:13;;;;;;;7.93;5.73;;;16.80;99.90;;;;;;6222429;23;20155;-40
2022/10/17 08:03:47;;;;;;;9.30;5.93;;;16.90;99.90;;;;;;6251963;23;20179;-42
2022/10/17 08:06:14;;;;;;;13.90;5.77;;;17.00;99.90;;;;;;6251697;23;20609;-41
2022/10/17 08:08:58;;;;;;;10.00;5.20;;;17.00;99.90;;;;;;6227539;23;20179;-40
2022/10/17 08:11:27;;;;;;;13.17;5.47;;;17.10;99.90;;;;;;6256305;23;20162;-41
2022/10/17 08:13:53;;;;;;;6.97;5.00;;;17.10;99.90;;;;;;6246828;23;20230;-43
2022/10/17 08:16:18;;;;;;;9.97;5.13;;;17.20;99.90;;;;;;6246882;23;20155;-41
2022/10/17 08:18:44;;;;;;;8.93;4.53;;;17.20;99.90;;;;;;6246059;22;20254;-39
2022/10/17 08:21:12;;;;;;;7.53;5.27;;;17.30;99.90;;;;;;6245999;23;20159;-38
2022/10/17 08:23:37;;;;;;;12.67;5.97;;;17.40;99.90;;;;;;6246206;23;20183;-41
2022/10/17 08:26:05;;;;;;;13.93;5.50;;;17.50;99.90;;;;;;6246014;23;20152;-39
2022/10/17 08:28:34;;;;;;;9.27;5.33;;;17.70;99.90;;;;;;6219039;23;20182;-38
2022/10/17 08:31:09;;;;;;;8.50;4.90;;;17.80;99.90;;;;;;6246132;23;20152;-39
2022/10/17 08:33:34;;;;;;;8.00;4.37;;;17.90;99.90;;;;;;6245867;23;20182;-41
2022/10/17 08:36:01;;;;;;;13.03;5.00;;;18.00;99.90;;;;;;6245899;23;20611;-40
2022/10/17 08:38:29;;;;;;;11.70;4.83;;;18.10;99.90;;;;;;6245723;22;20194;-41
2022/10/17 08:40:58;;;;;;;10.17;4.93;;;18.20;99.90;;;;;;6246051;23;20212;-38
2022/10/17 08:43:44;;;;;;;30.23;4.87;;;18.20;99.90;;;;;;6246487;23;20594;-39
2022/10/17 08:46:10;;;;;;;6.40;3.43;;;18.30;99.90;;;;;;6245024;23;20209;-38
2022/10/17 08:48:41;;;;;;;10.40;4.07;;;18.40;99.90;;;;;;6245776;22;20190;-41
2022/10/17 08:51:32;;;;;;;12.30;5.43;;;18.50;99.90;;;;;;6246311;23;20286;-40
2022/10/17 08:54:14;;;;;;;9.17;4.07;;;18.60;99.90;;;;;;6246169;23;20143;-40
2022/10/17 08:56:48;;;;;;;10.63;4.30;;;18.60;99.90;;;;;;6246056;22;20152;-38
2022/10/17 08:59:18;;;;;;;7.43;4.87;;;18.70;99.90;;;;;;6219074;23;20163;-40
2022/10/17 09:02:32;;;;;;;7.23;4.90;;;18.90;99.90;;;;;;6246463;23;20167;-40
2022/10/17 09:05:06;;;;;;;13.17;4.00;;;19.10;99.90;;;;;;6237341;23;20183;-41
2022/10/17 09:07:45;;;;;;;8.90;3.97;;;19.40;99.90;;;;;;6247923;22;20232;-38
2022/10/17 09:10:24;;;;;;;4.57;4.07;;;19.50;99.90;;;;;;6248060;23;20475;-40
2022/10/17 09:13:18;;;;;;;7.80;4.00;;;19.60;99.90;;;;;;6247830;23;20519;-42
2022/10/17 09:16:29;;;;;;;8.27;3.37;;;19.80;99.90;;;;;;6247848;23;20147;-40
2022/10/17 09:19:06;;;;;;;9.90;3.90;;;19.70;99.90;;;;;;6248110;23;20163;-40
2022/10/17 09:21:39;;;;;;;4.83;3.57;;;19.70;99.90;;;;;;6247452;23;20144;-41
2022/10/17 09:24:15;;;;;;;4.90;3.27;;;19.60;99.90;;;;;;6247688;23;20221;-41
2022/10/17 09:26:43;;;;;;;4.83;2.87;;;19.60;99.90;;;;;;6247711;22;20521;-41
2022/10/17 09:29:20;;;;;;;5.87;3.23;;;19.50;99.90;;;;;;6220407;23;20183;-38
2022/10/17 09:32:04;;;;;;;7.47;3.30;;;19.60;99.90;;;;;;6247834;23;20163;-40
2022/10/17 09:34:31;;;;;;;6.40;2.93;;;19.70;99.90;;;;;;6247158;23;20159;-40
2022/10/17 09:36:59;;;;;;;4.53;3.13;;;19.80;99.90;;;;;;6247264;22;20191;-41
2022/10/17 09:39:30;;;;;;;7.53;3.30;;;19.80;99.90;;;;;;6195831;23;20241;-42
2022/10/17 09:41:58;;;;;;;6.30;3.17;;;19.80;99.90;;;;;;6247649;23;20158;-40
2022/10/17 09:44:28;;;;;;;8.50;3.47;;;19.80;99.90;;;;;;6247099;23;20222;-42
2022/10/17 09:47:12;;;;;;;11.20;3.80;;;19.80;99.90;;;;;;6247143;22;20171;-40
2022/10/17 09:49:44;;;;;;;7.37;2.70;;;19.80;99.90;;;;;;6247217;23;20218;-40
2022/10/17 09:52:20;;;;;;;7.43;2.93;;;19.70;99.90;;;;;;6220342;23;20170;-41
2022/10/17 09:54:59;;;;;;;6.20;2.80;;;19.70;99.90;;;;;;6247548;23;20148;-39
2022/10/17 09:57:25;;;;;;;11.13;2.87;;;19.70;99.90;;;;;;6247403;22;20175;-41
2022/10/17 10:00:01;;;;;;;5.73;3.03;;;19.70;99.90;;;;;;6247391;23;20523;-40
2022/10/17 10:02:29;;;;;;;5.80;3.00;;;19.60;99.90;;;;;;6247332;23;20231;-39
2022/10/17 10:05:00;;;;;;;8.80;2.87;;;19.60;99.90;;;;;;6247249;23;20640;-38
2022/10/17 10:07:29;;;;;;;4.53;3.07;;;19.60;99.90;;;;;;6247424;22;20168;-40
2022/10/17 10:09:56;;;;;;;4.00;3.10;;;19.60;99.90;;;;;;6247091;23;20156;-40
2022/10/17 10:12:27;;;;;;;5.93;3.30;;;19.60;99.90;;;;;;6247124;23;20242;-40
2022/10/17 10:14:53;;;;;;;3.77;2.50;;;19.50;99.90;;;;;;6247171;23;20151;-39
2022/10/17 10:17:27;;;;;;;7.23;2.63;;;19.50;99.90;;;;;;6247782;22;20175;-41
2022/10/17 10:19:52;;;;;;;5.83;3.00;;;19.50;99.90;;;;;;6247520;23;20159;-40
2022/10/17 10:22:23;;;;;;;5.30;2.90;;;19.50;99.90;;;;;;6248414;23;20159;-40
2022/10/17 10:25:15;;;;;;;6.10;3.00;;;19.60;99.90;;;;;;6247555;23;20243;-40
2022/10/17 10:27:43;;;;;;;6.90;2.80;;;19.60;99.90;;;;;;6247097;22;20633;-40
2022/10/17 10:30:25;;;;;;;7.30;2.77;;;19.50;99.90;;;;;;6247442;23;20174;-42
2022/10/17 10:32:51;;;;;;;5.63;2.60;;;19.60;99.90;;;;;;6247344;23;20140;-40
2022/10/17 10:35:23;;;;;;;5.10;3.03;;;19.50;99.90;;;;;;6220230;23;20183;-41
2022/10/17 10:37:53;;;;;;;5.10;2.90;;;19.50;99.90;;;;;;6247099;22;20190;-40
2022/10/17 10:40:31;;;;;;;8.27;2.70;;;19.50;99.90;;;;;;6246884;23;20151;-43
2022/10/17 10:42:58;;;;;;;4.03;2.90;;;19.50;99.90;;;;;;6247056;23;20219;-41
2022/10/17 10:45:40;;;;;;;4.70;2.70;;;19.50;99.90;;;;;;6220452;23;20171;-41
2022/10/17 10:48:26;;;;;;;5.20;2.70;;;19.50;99.90;;;;;;6246744;22;20685;-38
2022/10/17 10:50:56;;;;;;;8.13;2.53;;;19.50;99.90;;;;;;6247012;23;20166;-40
2022/10/17 10:53:44;;;;;;;6.93;3.03;;;19.40;99.90;;;;;;6246929;23;20144;-40
2022/10/17 10:56:33;;;;;;;4.60;2.50;;;19.40;99.90;;;;;;6220124;23;20210;-41
2022/10/17 10:59:08;;;;;;;9.83;2.70;;;19.40;99.90;;;;;;6247381;23;20164;-43
2022/10/17 11:01:51;;;;;;;4.17;2.87;;;19.40;99.90;;;;;;6247235;23;20143;-43
2022/10/17 11:04:32;;;;;;;8.03;2.77;;;19.40;99.90;;;;;;6246553;23;20574;-43
2022/10/17 11:07:05;;;;;;;8.53;2.93;;;19.40;99.90;;;;;;6246501;22;20198;-41
2022/10/17 11:10:14;;;;;;;9.73;4.13;;;19.30;99.90;;;;;;6247028;23;20151;-40
2022/10/17 11:12:48;;;;;;;6.43;2.70;;;19.30;99.90;;;;;;6179949;23;20231;-41
2022/10/17 11:15:26;;;;;;;5.37;3.07;;;19.30;99.90;;;;;;6246524;23;20147;-42
2022/10/17 11:17:59;;;;;;;8.87;2.70;;;19.30;99.90;;;;;;6246740;22;20179;-42
2022/10/17 11:20:58;;;;;;;5.47;3.03;;;19.30;99.90;;;;;;6219477;23;20593;-41
2022/10/17 11:23:36;;;;;;;3.87;2.80;;;19.30;99.90;;;;;;6246821;23;20171;-41
2022/10/17 11:26:07;;;;;;;6.90;2.83;;;19.40;99.90;;;;;;6246777;23;20140;-41
2022/10/17 11:28:33;;;;;;;3.03;2.70;;;19.50;99.90;;;;;;6246600;22;20197;-43
2022/10/17 11:31:12;;;;;;;9.23;3.00;;;19.50;99.90;;;;;;6246295;23;20613;-38
2022/10/17 11:33:43;;;;;;;4.83;2.77;;;19.60;99.90;;;;;;6246622;23;20139;-40
2022/10/17 11:36:10;;;;;;;4.67;2.70;;;19.70;99.90;;;;;;6245982;23;20171;-42
2022/10/17 11:38:44;;;;;;;4.73;2.70;;;19.70;99.90;;;;;;6219285;23;20179;-40
2022/10/17 11:41:25;;;;;;;3.60;2.60;;;19.70;99.90;;;;;;6246158;23;20155;-39
2022/10/17 11:43:56;;;;;;;6.40;2.70;;;19.70;99.90;;;;;;6246475;23;20221;-41
2022/10/17 11:46:24;;;;;;;4.40;2.60;;;19.80;99.90;;;;;;6246149;23;20178;-42
2022/10/17 11:49:02;;;;;;;3.23;2.80;;;19.80;99.90;;;;;;6246130;22;20171;-39
2022/10/17 11:51:33;;;;;;;6.63;2.70;;;19.70;99.90;;;;;;6246540;23;20150;-40
2022/10/17 11:54:10;;;;;;;4.47;2.50;;;19.70;99.90;;;;;;6246792;23;20273;-41
2022/10/17 11:57:05;;;;;;;3.97;2.60;;;19.70;99.90;;;;;;6246092;22;20167;-42
2022/10/17 11:59:40;;;;;;;11.77;2.57;;;19.70;99.90;;;;;;6246694;23;20147;-41
2022/10/17 12:02:16;;;;;;;5.73;2.90;;;19.70;99.90;;;;;;6246741;23;20197;-38
2022/10/17 12:05:08;;;;;;;7.40;2.80;;;19.60;99.90;;;;;;6246272;23;20173;-43
2022/10/17 12:08:16;;;;;;;7.50;2.60;;;19.70;99.90;;;;;;6246572;22;20183;-42
2022/10/17 12:10:45;;;;;;;14.73;2.97;;;19.70;99.90;;;;;;6229863;23;20187;-40
2022/10/17 12:13:33;;;;;;;4.73;2.53;;;19.70;99.90;;;;;;6246380;23;20152;-40
2022/10/17 12:16:22;;;;;;;4.63;2.50;;;19.70;99.90;;;;;;6246062;23;20163;-40
2022/10/17 12:19:19;;;;;;;4.47;2.20;;;19.70;99.90;;;;;;6229852;23;20180;-41
2022/10/17 12:22:13;;;;;;;6.37;3.07;;;19.80;99.90;;;;;;6246036;23;20221;-43
2022/10/17 12:24:44;;;;;;;7.17;2.60;;;19.80;99.90;;;;;;6246151;23;20171;-37
2022/10/17 12:27:34;;;;;;;6.93;2.13;;;19.90;99.90;;;;;;6218933;23;20175;-41
2022/10/17 12:30:03;;;;;;;7.13;2.40;;;19.90;99.90;;;;;;6245963;23;20148;-42
2022/10/17 12:32:29;;;;;;;7.83;2.07;;;20.00;99.90;;;;;;6218977;23;20731;-39
2022/10/17 12:34:56;;;;;;;8.77;2.40;;;20.00;99.90;;;;;;6245823;23;20183;-38
2022/10/17 12:37:49;;;;;;;6.23;2.17;;;20.10;99.90;;;;;;6246553;22;20179;-38
2022/10/17 12:40:33;;;;;;;6.10;2.07;;;20.10;99.90;;;;;;6248216;23;20167;-41
2022/10/17 12:42:59;;;;;;;6.37;2.60;;;20.10;99.90;;;;;;6247815;23;20226;-43
2022/10/17 12:45:51;;;;;;;3.27;2.40;;;20.20;99.90;;;;;;6220827;23;20710;-42
2022/10/17 12:48:35;;;;;;;5.70;2.13;;;20.20;99.90;;;;;;6247745;22;20246;-42
2022/10/17 12:51:09;;;;;;;4.10;2.33;;;20.20;99.90;;;;;;6248378;23;20554;-42
2022/10/17 12:53:54;;;;;;;6.60;2.30;;;20.20;99.90;;;;;;6248112;23;20165;-42
2022/10/17 12:56:30;;;;;;;7.20;2.97;;;20.20;99.90;;;;;;6247728;23;20151;-39
2022/10/17 12:58:57;;;;;;;7.37;2.67;;;20.20;99.90;;;;;;6248021;23;20573;-40
2022/10/17 13:01:31;;;;;;;5.87;2.10;;;20.20;99.90;;;;;;6247934;23;20540;-39
2022/10/17 13:04:04;;;;;;;6.80;2.43;;;20.30;99.90;;;;;;6220492;23;20274;-41
2022/10/17 13:06:36;;;;;;;5.77;2.20;;;20.30;99.90;;;;;;6247411;22;20140;-41